sensor_id;sensor_type;location;lat;lon;timestamp;P1;durP1;ratioP1;P2;durP2;ratioP2
70549;SDS011;58101;48.658;2.328;2022-12-16T00:01:22;24.38;;;8.30;;
70549;SDS011;58101;48.658;2.328;2022-12-16T00:03:49;23.02;;;8.05;;
70549;SDS011;58101;48.658;2.328;2022-12-16T00:06:19;20.42;;;7.55;;
70549;SDS011;58101;48.658;2.328;2022-12-16T00:08:46;22.02;;;7.55;;
70549;SDS011;58101;48.658;2.328;2022-12-16T00:11:12;17.73;;;6.70;;
70549;SDS011;58101;48.658;2.328;2022-12-16T00:13:38;20.67;;;7.03;;
70549;SDS011;58101;48.658;2.328;2022-12-16T00:16:05;17.23;;;5.90;;
70549;SDS011;58101;48.658;2.328;2022-12-16T00:18:36;17.65;;;6.40;;
70549;SDS011;58101;48.658;2.328;2022-12-16T00:21:02;16.33;;;5.90;;
70549;SDS011;58101;48.658;2.328;2022-12-16T00:23:28;19.15;;;6.10;;
70549;SDS011;58101;48.658;2.328;2022-12-16T00:25:54;18.10;;;5.93;;
70549;SDS011;58101;48.658;2.328;2022-12-16T00:28:20;18.27;;;6.05;;
70549;SDS011;58101;48.658;2.328;2022-12-16T00:30:49;19.25;;;6.45;;
70549;SDS011;58101;48.658;2.328;2022-12-16T00:33:16;17.90;;;6.55;;
70549;SDS011;58101;48.658;2.328;2022-12-16T00:35:42;16.77;;;6.50;;
70549;SDS011;58101;48.658;2.328;2022-12-16T00:38:08;20.35;;;7.22;;
70549;SDS011;58101;48.658;2.328;2022-12-16T00:40:34;20.00;;;6.57;;
70549;SDS011;58101;48.658;2.328;2022-12-16T00:43:00;16.55;;;6.18;;
70549;SDS011;58101;48.658;2.328;2022-12-16T00:45:25;14.70;;;5.90;;
70549;SDS011;58101;48.658;2.328;2022-12-16T00:47:51;16.95;;;5.75;;
70549;SDS011;58101;48.658;2.328;2022-12-16T00:50:17;17.83;;;5.93;;
70549;SDS011;58101;48.658;2.328;2022-12-16T00:52:44;14.30;;;5.35;;
70549;SDS011;58101;48.658;2.328;2022-12-16T00:55:11;20.25;;;6.57;;
70549;SDS011;58101;48.658;2.328;2022-12-16T00:57:37;24.52;;;7.22;;
70549;SDS011;58101;48.658;2.328;2022-12-16T01:00:03;23.77;;;7.68;;
70549;SDS011;58101;48.658;2.328;2022-12-16T01:02:30;14.85;;;5.85;;
70549;SDS011;58101;48.658;2.328;2022-12-16T01:04:56;28.55;;;7.65;;
70549;SDS011;58101;48.658;2.328;2022-12-16T01:07:22;39.17;;;10.88;;
70549;SDS011;58101;48.658;2.328;2022-12-16T01:09:47;37.30;;;11.02;;
70549;SDS011;58101;48.658;2.328;2022-12-16T01:12:13;26.20;;;8.25;;
70549;SDS011;58101;48.658;2.328;2022-12-16T01:14:39;32.92;;;9.52;;
70549;SDS011;58101;48.658;2.328;2022-12-16T01:17:04;27.63;;;9.02;;
70549;SDS011;58101;48.658;2.328;2022-12-16T01:19:30;19.23;;;6.47;;
70549;SDS011;58101;48.658;2.328;2022-12-16T01:21:56;18.45;;;6.43;;
70549;SDS011;58101;48.658;2.328;2022-12-16T01:24:21;25.13;;;7.60;;
70549;SDS011;58101;48.658;2.328;2022-12-16T01:26:47;18.85;;;7.38;;
70549;SDS011;58101;48.658;2.328;2022-12-16T01:29:13;21.38;;;7.80;;
70549;SDS011;58101;48.658;2.328;2022-12-16T01:31:39;20.52;;;7.25;;
70549;SDS011;58101;48.658;2.328;2022-12-16T01:34:04;20.00;;;7.40;;
70549;SDS011;58101;48.658;2.328;2022-12-16T01:36:30;18.92;;;7.22;;
70549;SDS011;58101;48.658;2.328;2022-12-16T01:38:56;19.17;;;6.68;;
70549;SDS011;58101;48.658;2.328;2022-12-16T01:41:21;18.33;;;7.13;;
70549;SDS011;58101;48.658;2.328;2022-12-16T01:43:47;19.58;;;7.47;;
70549;SDS011;58101;48.658;2.328;2022-12-16T01:48:51;19.75;;;7.25;;
70549;SDS011;58101;48.658;2.328;2022-12-16T01:53:58;20.33;;;6.93;;
70549;SDS011;58101;48.658;2.328;2022-12-16T01:56:31;19.90;;;7.43;;
70549;SDS011;58101;48.658;2.328;2022-12-16T01:58:59;22.80;;;7.53;;
70549;SDS011;58101;48.658;2.328;2022-12-16T02:01:25;23.15;;;7.70;;
70549;SDS011;58101;48.658;2.328;2022-12-16T02:03:51;22.80;;;7.32;;
70549;SDS011;58101;48.658;2.328;2022-12-16T02:06:19;23.05;;;7.95;;
70549;SDS011;58101;48.658;2.328;2022-12-16T02:08:52;21.63;;;7.80;;
70549;SDS011;58101;48.658;2.328;2022-12-16T02:11:33;21.88;;;7.40;;
70549;SDS011;58101;48.658;2.328;2022-12-16T02:17:07;24.15;;;8.98;;
70549;SDS011;58101;48.658;2.328;2022-12-16T02:33:35;26.13;;;8.73;;
70549;SDS011;58101;48.658;2.328;2022-12-16T02:41:18;24.60;;;8.15;;
70549;SDS011;58101;48.658;2.328;2022-12-16T02:46:24;22.38;;;8.18;;
70549;SDS011;58101;48.658;2.328;2022-12-16T02:48:52;23.38;;;7.80;;
70549;SDS011;58101;48.658;2.328;2022-12-16T02:51:18;20.60;;;8.05;;
70549;SDS011;58101;48.658;2.328;2022-12-16T02:53:45;23.88;;;8.68;;
70549;SDS011;58101;48.658;2.328;2022-12-16T02:56:22;22.83;;;8.45;;
70549;SDS011;58101;48.658;2.328;2022-12-16T03:01:50;24.42;;;7.97;;
70549;SDS011;58101;48.658;2.328;2022-12-16T03:07:03;25.05;;;8.57;;
70549;SDS011;58101;48.658;2.328;2022-12-16T03:09:33;25.48;;;8.63;;
70549;SDS011;58101;48.658;2.328;2022-12-16T03:12:09;20.63;;;8.40;;
70549;SDS011;58101;48.658;2.328;2022-12-16T03:14:41;22.20;;;8.07;;
70549;SDS011;58101;48.658;2.328;2022-12-16T03:17:10;24.98;;;9.23;;
70549;SDS011;58101;48.658;2.328;2022-12-16T03:22:07;22.10;;;8.02;;
70549;SDS011;58101;48.658;2.328;2022-12-16T03:24:40;25.90;;;9.52;;
70549;SDS011;58101;48.658;2.328;2022-12-16T03:27:17;26.58;;;9.50;;
70549;SDS011;58101;48.658;2.328;2022-12-16T03:30:49;26.25;;;9.48;;
70549;SDS011;58101;48.658;2.328;2022-12-16T03:33:00;27.33;;;9.05;;
70549;SDS011;58101;48.658;2.328;2022-12-16T03:38:09;24.98;;;9.10;;
70549;SDS011;58101;48.658;2.328;2022-12-16T03:40:36;27.17;;;9.77;;
70549;SDS011;58101;48.658;2.328;2022-12-16T03:43:03;26.30;;;9.57;;
70549;SDS011;58101;48.658;2.328;2022-12-16T03:45:37;26.60;;;9.38;;
70549;SDS011;58101;48.658;2.328;2022-12-16T03:48:06;30.13;;;9.98;;
70549;SDS011;58101;48.658;2.328;2022-12-16T03:50:33;26.48;;;9.38;;
70549;SDS011;58101;48.658;2.328;2022-12-16T03:52:59;27.08;;;9.52;;
70549;SDS011;58101;48.658;2.328;2022-12-16T03:55:25;26.50;;;9.40;;
70549;SDS011;58101;48.658;2.328;2022-12-16T03:57:52;22.73;;;8.95;;
70549;SDS011;58101;48.658;2.328;2022-12-16T04:00:18;26.90;;;9.02;;
70549;SDS011;58101;48.658;2.328;2022-12-16T04:02:44;24.00;;;8.82;;
70549;SDS011;58101;48.658;2.328;2022-12-16T04:05:09;26.88;;;8.77;;
70549;SDS011;58101;48.658;2.328;2022-12-16T04:07:35;23.30;;;8.32;;
70549;SDS011;58101;48.658;2.328;2022-12-16T04:10:01;29.45;;;8.50;;
70549;SDS011;58101;48.658;2.328;2022-12-16T04:12:27;24.65;;;8.93;;
70549;SDS011;58101;48.658;2.328;2022-12-16T04:15:11;28.17;;;9.05;;
70549;SDS011;58101;48.658;2.328;2022-12-16T04:17:55;24.42;;;8.57;;
70549;SDS011;58101;48.658;2.328;2022-12-16T04:20:41;23.88;;;8.77;;
70549;SDS011;58101;48.658;2.328;2022-12-16T04:23:31;24.17;;;9.02;;
70549;SDS011;58101;48.658;2.328;2022-12-16T04:26:17;25.42;;;8.60;;
70549;SDS011;58101;48.658;2.328;2022-12-16T04:28:43;26.75;;;9.45;;
70549;SDS011;58101;48.658;2.328;2022-12-16T04:31:08;26.77;;;9.02;;
70549;SDS011;58101;48.658;2.328;2022-12-16T04:33:34;21.05;;;8.95;;
70549;SDS011;58101;48.658;2.328;2022-12-16T04:36:19;19.88;;;8.20;;
70549;SDS011;58101;48.658;2.328;2022-12-16T04:39:03;32.67;;;11.98;;
70549;SDS011;58101;48.658;2.328;2022-12-16T04:41:50;30.95;;;12.10;;
70549;SDS011;58101;48.658;2.328;2022-12-16T04:44:38;29.67;;;11.18;;
70549;SDS011;58101;48.658;2.328;2022-12-16T04:47:23;25.10;;;10.25;;
70549;SDS011;58101;48.658;2.328;2022-12-16T04:50:07;27.85;;;10.68;;
70549;SDS011;58101;48.658;2.328;2022-12-16T04:52:51;28.50;;;10.30;;
70549;SDS011;58101;48.658;2.328;2022-12-16T04:55:36;28.63;;;9.88;;
70549;SDS011;58101;48.658;2.328;2022-12-16T04:58:20;35.50;;;11.88;;
70549;SDS011;58101;48.658;2.328;2022-12-16T05:01:05;36.38;;;12.82;;
70549;SDS011;58101;48.658;2.328;2022-12-16T05:03:49;30.15;;;10.90;;
70549;SDS011;58101;48.658;2.328;2022-12-16T05:06:33;27.33;;;10.23;;
70549;SDS011;58101;48.658;2.328;2022-12-16T05:09:17;29.15;;;10.15;;
70549;SDS011;58101;48.658;2.328;2022-12-16T05:12:01;30.45;;;11.30;;
70549;SDS011;58101;48.658;2.328;2022-12-16T05:14:46;32.97;;;11.25;;
70549;SDS011;58101;48.658;2.328;2022-12-16T05:17:30;33.90;;;11.60;;
70549;SDS011;58101;48.658;2.328;2022-12-16T05:20:14;29.83;;;11.02;;
70549;SDS011;58101;48.658;2.328;2022-12-16T05:22:58;29.50;;;10.57;;
70549;SDS011;58101;48.658;2.328;2022-12-16T05:25:42;27.08;;;10.30;;
70549;SDS011;58101;48.658;2.328;2022-12-16T05:28:26;30.08;;;10.90;;
70549;SDS011;58101;48.658;2.328;2022-12-16T05:31:11;26.20;;;10.10;;
70549;SDS011;58101;48.658;2.328;2022-12-16T05:33:55;26.80;;;9.88;;
70549;SDS011;58101;48.658;2.328;2022-12-16T05:36:39;25.95;;;9.65;;
70549;SDS011;58101;48.658;2.328;2022-12-16T05:39:23;24.48;;;9.50;;
70549;SDS011;58101;48.658;2.328;2022-12-16T05:42:07;26.70;;;10.15;;
70549;SDS011;58101;48.658;2.328;2022-12-16T05:44:52;32.67;;;10.27;;
70549;SDS011;58101;48.658;2.328;2022-12-16T05:47:36;29.42;;;10.40;;
70549;SDS011;58101;48.658;2.328;2022-12-16T05:50:20;26.23;;;10.02;;
70549;SDS011;58101;48.658;2.328;2022-12-16T05:53:04;28.25;;;10.15;;
70549;SDS011;58101;48.658;2.328;2022-12-16T05:55:48;30.80;;;11.18;;
70549;SDS011;58101;48.658;2.328;2022-12-16T05:58:32;30.02;;;10.38;;
70549;SDS011;58101;48.658;2.328;2022-12-16T06:01:16;30.35;;;10.93;;
70549;SDS011;58101;48.658;2.328;2022-12-16T06:04:00;33.40;;;10.98;;
70549;SDS011;58101;48.658;2.328;2022-12-16T06:06:44;24.92;;;10.20;;
70549;SDS011;58101;48.658;2.328;2022-12-16T06:09:28;27.73;;;10.52;;
70549;SDS011;58101;48.658;2.328;2022-12-16T06:12:12;27.70;;;10.35;;
70549;SDS011;58101;48.658;2.328;2022-12-16T06:14:56;24.23;;;10.13;;
70549;SDS011;58101;48.658;2.328;2022-12-16T06:17:47;27.45;;;10.05;;
70549;SDS011;58101;48.658;2.328;2022-12-16T06:20:32;24.40;;;9.43;;
70549;SDS011;58101;48.658;2.328;2022-12-16T06:23:17;32.45;;;10.80;;
70549;SDS011;58101;48.658;2.328;2022-12-16T06:26:01;32.15;;;10.63;;
70549;SDS011;58101;48.658;2.328;2022-12-16T06:28:45;29.48;;;10.43;;
70549;SDS011;58101;48.658;2.328;2022-12-16T06:31:29;28.48;;;9.77;;
70549;SDS011;58101;48.658;2.328;2022-12-16T06:34:14;34.50;;;10.52;;
70549;SDS011;58101;48.658;2.328;2022-12-16T06:36:58;27.17;;;10.30;;
70549;SDS011;58101;48.658;2.328;2022-12-16T06:39:42;29.13;;;9.90;;
70549;SDS011;58101;48.658;2.328;2022-12-16T06:42:26;32.50;;;11.90;;
70549;SDS011;58101;48.658;2.328;2022-12-16T06:45:10;27.98;;;10.88;;
70549;SDS011;58101;48.658;2.328;2022-12-16T06:47:55;24.67;;;9.73;;
70549;SDS011;58101;48.658;2.328;2022-12-16T06:50:39;25.00;;;9.68;;
70549;SDS011;58101;48.658;2.328;2022-12-16T06:53:23;25.95;;;10.18;;
70549;SDS011;58101;48.658;2.328;2022-12-16T06:56:07;32.70;;;12.23;;
70549;SDS011;58101;48.658;2.328;2022-12-16T06:58:58;30.90;;;11.15;;
70549;SDS011;58101;48.658;2.328;2022-12-16T07:01:42;27.88;;;10.55;;
70549;SDS011;58101;48.658;2.328;2022-12-16T07:04:26;24.65;;;10.43;;
70549;SDS011;58101;48.658;2.328;2022-12-16T07:07:10;24.55;;;10.60;;
70549;SDS011;58101;48.658;2.328;2022-12-16T07:09:54;27.02;;;10.35;;
70549;SDS011;58101;48.658;2.328;2022-12-16T07:12:38;26.52;;;10.40;;
70549;SDS011;58101;48.658;2.328;2022-12-16T07:15:22;26.58;;;10.70;;
70549;SDS011;58101;48.658;2.328;2022-12-16T07:18:06;26.73;;;10.05;;
70549;SDS011;58101;48.658;2.328;2022-12-16T07:20:51;29.13;;;12.00;;
70549;SDS011;58101;48.658;2.328;2022-12-16T07:23:35;29.98;;;11.32;;
70549;SDS011;58101;48.658;2.328;2022-12-16T07:26:19;28.58;;;10.82;;
70549;SDS011;58101;48.658;2.328;2022-12-16T07:29:03;33.63;;;11.57;;
70549;SDS011;58101;48.658;2.328;2022-12-16T07:31:47;28.90;;;11.70;;
70549;SDS011;58101;48.658;2.328;2022-12-16T07:34:31;35.35;;;11.60;;
70549;SDS011;58101;48.658;2.328;2022-12-16T07:37:15;32.67;;;11.38;;
70549;SDS011;58101;48.658;2.328;2022-12-16T07:39:59;35.70;;;12.75;;
70549;SDS011;58101;48.658;2.328;2022-12-16T07:42:47;37.53;;;12.27;;
70549;SDS011;58101;48.658;2.328;2022-12-16T07:45:31;34.67;;;12.40;;
70549;SDS011;58101;48.658;2.328;2022-12-16T07:48:15;34.75;;;11.18;;
70549;SDS011;58101;48.658;2.328;2022-12-16T07:50:59;39.92;;;12.95;;
70549;SDS011;58101;48.658;2.328;2022-12-16T07:53:43;33.53;;;12.27;;
70549;SDS011;58101;48.658;2.328;2022-12-16T07:56:27;37.67;;;12.02;;
70549;SDS011;58101;48.658;2.328;2022-12-16T07:59:12;34.88;;;12.18;;
70549;SDS011;58101;48.658;2.328;2022-12-16T08:01:56;35.95;;;11.40;;
70549;SDS011;58101;48.658;2.328;2022-12-16T08:04:40;30.52;;;11.85;;
70549;SDS011;58101;48.658;2.328;2022-12-16T08:07:24;26.38;;;9.98;;
70549;SDS011;58101;48.658;2.328;2022-12-16T08:10:08;31.55;;;11.40;;
70549;SDS011;58101;48.658;2.328;2022-12-16T08:13:02;31.10;;;10.50;;
70549;SDS011;58101;48.658;2.328;2022-12-16T08:15:47;31.85;;;10.68;;
70549;SDS011;58101;48.658;2.328;2022-12-16T08:18:31;30.55;;;10.60;;
70549;SDS011;58101;48.658;2.328;2022-12-16T08:21:16;31.83;;;10.52;;
70549;SDS011;58101;48.658;2.328;2022-12-16T08:23:59;27.15;;;9.50;;
70549;SDS011;58101;48.658;2.328;2022-12-16T08:26:44;30.48;;;10.18;;
70549;SDS011;58101;48.658;2.328;2022-12-16T08:29:28;29.42;;;10.20;;
70549;SDS011;58101;48.658;2.328;2022-12-16T08:32:12;29.55;;;9.82;;
70549;SDS011;58101;48.658;2.328;2022-12-16T08:34:58;30.02;;;10.88;;
70549;SDS011;58101;48.658;2.328;2022-12-16T08:37:43;30.35;;;10.30;;
70549;SDS011;58101;48.658;2.328;2022-12-16T08:40:27;28.85;;;10.23;;
70549;SDS011;58101;48.658;2.328;2022-12-16T08:43:11;29.70;;;9.93;;
70549;SDS011;58101;48.658;2.328;2022-12-16T08:45:55;31.58;;;10.32;;
70549;SDS011;58101;48.658;2.328;2022-12-16T08:48:39;29.23;;;10.02;;
70549;SDS011;58101;48.658;2.328;2022-12-16T08:51:24;27.80;;;10.27;;
70549;SDS011;58101;48.658;2.328;2022-12-16T08:54:08;34.33;;;10.52;;
70549;SDS011;58101;48.658;2.328;2022-12-16T08:56:52;36.30;;;11.52;;
70549;SDS011;58101;48.658;2.328;2022-12-16T08:59:36;29.25;;;10.30;;
70549;SDS011;58101;48.658;2.328;2022-12-16T09:02:20;31.10;;;10.80;;
70549;SDS011;58101;48.658;2.328;2022-12-16T09:05:05;25.08;;;9.98;;
70549;SDS011;58101;48.658;2.328;2022-12-16T09:07:49;23.67;;;8.88;;
70549;SDS011;58101;48.658;2.328;2022-12-16T09:10:34;22.88;;;9.40;;
70549;SDS011;58101;48.658;2.328;2022-12-16T09:13:18;25.73;;;10.18;;
70549;SDS011;58101;48.658;2.328;2022-12-16T09:16:02;22.35;;;9.73;;
70549;SDS011;58101;48.658;2.328;2022-12-16T09:18:46;22.58;;;9.73;;
70549;SDS011;58101;48.658;2.328;2022-12-16T09:21:30;26.58;;;10.88;;
70549;SDS011;58101;48.658;2.328;2022-12-16T09:24:14;22.88;;;11.07;;
70549;SDS011;58101;48.658;2.328;2022-12-16T09:26:58;22.75;;;10.80;;
70549;SDS011;58101;48.658;2.328;2022-12-16T09:29:42;21.13;;;10.07;;
70549;SDS011;58101;48.658;2.328;2022-12-16T09:32:26;22.90;;;11.68;;
70549;SDS011;58101;48.658;2.328;2022-12-16T09:35:10;23.77;;;12.35;;
70549;SDS011;58101;48.658;2.328;2022-12-16T09:37:55;25.60;;;12.88;;
70549;SDS011;58101;48.658;2.328;2022-12-16T09:40:40;24.63;;;12.40;;
70549;SDS011;58101;48.658;2.328;2022-12-16T09:47:08;25.08;;;13.55;;
70549;SDS011;58101;48.658;2.328;2022-12-16T09:49:50;24.77;;;12.10;;
70549;SDS011;58101;48.658;2.328;2022-12-16T09:52:38;26.85;;;12.52;;
70549;SDS011;58101;48.658;2.328;2022-12-16T09:55:28;35.20;;;15.13;;
70549;SDS011;58101;48.658;2.328;2022-12-16T09:58:20;24.35;;;12.35;;
70549;SDS011;58101;48.658;2.328;2022-12-16T10:01:10;22.10;;;11.45;;
70549;SDS011;58101;48.658;2.328;2022-12-16T10:03:56;26.00;;;13.13;;
70549;SDS011;58101;48.658;2.328;2022-12-16T10:06:44;24.40;;;12.68;;
70549;SDS011;58101;48.658;2.328;2022-12-16T10:09:36;21.52;;;11.50;;
70549;SDS011;58101;48.658;2.328;2022-12-16T10:22:08;31.98;;;13.18;;
70549;SDS011;58101;48.658;2.328;2022-12-16T10:25:07;30.40;;;13.25;;
70549;SDS011;58101;48.658;2.328;2022-12-16T10:28:05;30.95;;;13.07;;
70549;SDS011;58101;48.658;2.328;2022-12-16T10:31:02;32.97;;;14.13;;
70549;SDS011;58101;48.658;2.328;2022-12-16T10:33:55;34.75;;;14.00;;
70549;SDS011;58101;48.658;2.328;2022-12-16T10:36:39;30.73;;;14.18;;
70549;SDS011;58101;48.658;2.328;2022-12-16T10:39:30;31.48;;;13.63;;
70549;SDS011;58101;48.658;2.328;2022-12-16T10:42:28;33.20;;;13.40;;
70549;SDS011;58101;48.658;2.328;2022-12-16T10:48:12;31.80;;;13.00;;
70549;SDS011;58101;48.658;2.328;2022-12-16T10:50:58;27.35;;;10.82;;
70549;SDS011;58101;48.658;2.328;2022-12-16T10:53:43;27.70;;;10.55;;
70549;SDS011;58101;48.658;2.328;2022-12-16T10:59:35;26.90;;;9.82;;
70549;SDS011;58101;48.658;2.328;2022-12-16T11:02:28;30.45;;;10.70;;
70549;SDS011;58101;48.658;2.328;2022-12-16T11:08:21;27.75;;;10.98;;
70549;SDS011;58101;48.658;2.328;2022-12-16T11:11:28;29.23;;;11.23;;
70549;SDS011;58101;48.658;2.328;2022-12-16T11:17:10;31.40;;;10.18;;
70549;SDS011;58101;48.658;2.328;2022-12-16T11:20:07;29.88;;;11.00;;
70549;SDS011;58101;48.658;2.328;2022-12-16T11:23:06;30.50;;;10.90;;
70549;SDS011;58101;48.658;2.328;2022-12-16T11:26:17;31.73;;;11.60;;
70549;SDS011;58101;48.658;2.328;2022-12-16T11:29:10;33.60;;;12.07;;
70549;SDS011;58101;48.658;2.328;2022-12-16T11:35:03;34.83;;;12.25;;
70549;SDS011;58101;48.658;2.328;2022-12-16T11:37:52;31.63;;;10.85;;
70549;SDS011;58101;48.658;2.328;2022-12-16T11:40:38;37.50;;;13.50;;
70549;SDS011;58101;48.658;2.328;2022-12-16T11:43:23;33.00;;;11.70;;
70549;SDS011;58101;48.658;2.328;2022-12-16T11:46:15;37.75;;;14.50;;
70549;SDS011;58101;48.658;2.328;2022-12-16T11:49:10;35.17;;;13.20;;
70549;SDS011;58101;48.658;2.328;2022-12-16T11:52:00;34.03;;;12.38;;
70549;SDS011;58101;48.658;2.328;2022-12-16T12:01:09;36.45;;;12.63;;
70549;SDS011;58101;48.658;2.328;2022-12-16T12:04:01;32.22;;;11.65;;
70549;SDS011;58101;48.658;2.328;2022-12-16T12:09:52;31.02;;;12.18;;
70549;SDS011;58101;48.658;2.328;2022-12-16T12:12:46;33.47;;;11.73;;
70549;SDS011;58101;48.658;2.328;2022-12-16T12:15:42;34.80;;;11.98;;
70549;SDS011;58101;48.658;2.328;2022-12-16T12:19:02;40.63;;;14.18;;
70549;SDS011;58101;48.658;2.328;2022-12-16T12:22:00;42.65;;;13.73;;
70549;SDS011;58101;48.658;2.328;2022-12-16T12:25:27;38.38;;;13.18;;
70549;SDS011;58101;48.658;2.328;2022-12-16T12:31:41;35.30;;;11.68;;
70549;SDS011;58101;48.658;2.328;2022-12-16T12:38:28;30.17;;;11.35;;
70549;SDS011;58101;48.658;2.328;2022-12-16T12:40:51;29.50;;;10.65;;
70549;SDS011;58101;48.658;2.328;2022-12-16T12:43:56;33.35;;;11.40;;
70549;SDS011;58101;48.658;2.328;2022-12-16T12:47:06;29.88;;;11.18;;
70549;SDS011;58101;48.658;2.328;2022-12-16T12:50:04;30.10;;;10.57;;
70549;SDS011;58101;48.658;2.328;2022-12-16T12:58:44;31.02;;;11.68;;
70549;SDS011;58101;48.658;2.328;2022-12-16T13:01:31;28.58;;;10.70;;
70549;SDS011;58101;48.658;2.328;2022-12-16T13:04:20;27.67;;;10.15;;
70549;SDS011;58101;48.658;2.328;2022-12-16T13:07:06;31.58;;;11.02;;
70549;SDS011;58101;48.658;2.328;2022-12-16T13:13:24;30.67;;;11.63;;
70549;SDS011;58101;48.658;2.328;2022-12-16T13:22:28;32.47;;;12.48;;
70549;SDS011;58101;48.658;2.328;2022-12-16T13:25:29;32.10;;;12.18;;
70549;SDS011;58101;48.658;2.328;2022-12-16T13:28:27;41.35;;;15.32;;
70549;SDS011;58101;48.658;2.328;2022-12-16T13:31:17;30.33;;;11.85;;
70549;SDS011;58101;48.658;2.328;2022-12-16T13:34:04;30.17;;;11.95;;
70549;SDS011;58101;48.658;2.328;2022-12-16T13:37:03;36.58;;;13.18;;
70549;SDS011;58101;48.658;2.328;2022-12-16T13:45:35;32.75;;;12.85;;
70549;SDS011;58101;48.658;2.328;2022-12-16T13:48:27;34.17;;;11.98;;
70549;SDS011;58101;48.658;2.328;2022-12-16T13:54:22;37.60;;;12.60;;
70549;SDS011;58101;48.658;2.328;2022-12-16T13:57:19;30.67;;;11.52;;
70549;SDS011;58101;48.658;2.328;2022-12-16T14:00:16;34.97;;;11.90;;
70549;SDS011;58101;48.658;2.328;2022-12-16T14:03:09;32.00;;;11.73;;
70549;SDS011;58101;48.658;2.328;2022-12-16T14:06:01;35.83;;;13.20;;
70549;SDS011;58101;48.658;2.328;2022-12-16T14:08:50;32.83;;;12.40;;
70549;SDS011;58101;48.658;2.328;2022-12-16T14:14:34;35.80;;;12.90;;
70549;SDS011;58101;48.658;2.328;2022-12-16T14:17:33;32.35;;;12.15;;
70549;SDS011;58101;48.658;2.328;2022-12-16T14:20:30;33.58;;;11.93;;
70549;SDS011;58101;48.658;2.328;2022-12-16T14:26:16;34.80;;;12.13;;
70549;SDS011;58101;48.658;2.328;2022-12-16T14:29:01;36.22;;;12.90;;
70549;SDS011;58101;48.658;2.328;2022-12-16T14:31:46;31.15;;;11.77;;
70549;SDS011;58101;48.658;2.328;2022-12-16T14:34:31;35.28;;;12.85;;
70549;SDS011;58101;48.658;2.328;2022-12-16T14:40:24;33.95;;;11.85;;
70549;SDS011;58101;48.658;2.328;2022-12-16T14:43:22;29.98;;;10.73;;
70549;SDS011;58101;48.658;2.328;2022-12-16T14:49:01;30.80;;;11.40;;
70549;SDS011;58101;48.658;2.328;2022-12-16T14:51:57;33.88;;;11.18;;
70549;SDS011;58101;48.658;2.328;2022-12-16T14:54:42;30.95;;;11.77;;
70549;SDS011;58101;48.658;2.328;2022-12-16T14:57:28;31.85;;;11.38;;
70549;SDS011;58101;48.658;2.328;2022-12-16T15:00:15;35.83;;;11.38;;
70549;SDS011;58101;48.658;2.328;2022-12-16T15:05:53;29.90;;;11.48;;
70549;SDS011;58101;48.658;2.328;2022-12-16T15:08:52;34.65;;;11.55;;
70549;SDS011;58101;48.658;2.328;2022-12-16T15:11:40;30.88;;;10.55;;
70549;SDS011;58101;48.658;2.328;2022-12-16T15:14:30;31.15;;;11.05;;
70549;SDS011;58101;48.658;2.328;2022-12-16T15:17:20;31.85;;;11.50;;
70549;SDS011;58101;48.658;2.328;2022-12-16T15:23:00;27.70;;;9.98;;
70549;SDS011;58101;48.658;2.328;2022-12-16T15:25:47;32.28;;;11.25;;
70549;SDS011;58101;48.658;2.328;2022-12-16T15:31:31;32.25;;;12.40;;
70549;SDS011;58101;48.658;2.328;2022-12-16T15:34:21;31.45;;;12.10;;
70549;SDS011;58101;48.658;2.328;2022-12-16T15:37:21;38.28;;;13.52;;
70549;SDS011;58101;48.658;2.328;2022-12-16T15:40:25;41.83;;;14.40;;
70549;SDS011;58101;48.658;2.328;2022-12-16T15:43:19;38.65;;;15.10;;
70549;SDS011;58101;48.658;2.328;2022-12-16T15:46:17;49.90;;;17.45;;
70549;SDS011;58101;48.658;2.328;2022-12-16T15:49:03;42.15;;;17.50;;
70549;SDS011;58101;48.658;2.328;2022-12-16T15:51:48;47.15;;;17.90;;
70549;SDS011;58101;48.658;2.328;2022-12-16T15:54:38;42.90;;;16.50;;
70549;SDS011;58101;48.658;2.328;2022-12-16T15:57:36;41.17;;;15.82;;
70549;SDS011;58101;48.658;2.328;2022-12-16T16:00:28;45.90;;;15.80;;
70549;SDS011;58101;48.658;2.328;2022-12-16T16:03:25;34.78;;;12.80;;
70549;SDS011;58101;48.658;2.328;2022-12-16T16:06:19;36.58;;;13.50;;
70549;SDS011;58101;48.658;2.328;2022-12-16T16:09:15;37.58;;;13.02;;
70549;SDS011;58101;48.658;2.328;2022-12-16T16:12:02;40.85;;;14.30;;
70549;SDS011;58101;48.658;2.328;2022-12-16T16:14:48;38.72;;;14.10;;
70549;SDS011;58101;48.658;2.328;2022-12-16T16:17:32;48.10;;;16.38;;
70549;SDS011;58101;48.658;2.328;2022-12-16T16:20:17;47.10;;;15.77;;
70549;SDS011;58101;48.658;2.328;2022-12-16T16:23:01;53.22;;;17.55;;
70549;SDS011;58101;48.658;2.328;2022-12-16T16:25:46;51.33;;;18.08;;
70549;SDS011;58101;48.658;2.328;2022-12-16T16:28:32;51.13;;;18.65;;
70549;SDS011;58101;48.658;2.328;2022-12-16T16:31:16;48.10;;;18.20;;
70549;SDS011;58101;48.658;2.328;2022-12-16T16:34:00;59.60;;;23.20;;
70549;SDS011;58101;48.658;2.328;2022-12-16T16:36:46;61.78;;;24.90;;
70549;SDS011;58101;48.658;2.328;2022-12-16T16:39:34;61.20;;;24.98;;
70549;SDS011;58101;48.658;2.328;2022-12-16T16:42:18;60.17;;;24.17;;
70549;SDS011;58101;48.658;2.328;2022-12-16T16:45:02;62.63;;;23.65;;
70549;SDS011;58101;48.658;2.328;2022-12-16T16:47:46;54.40;;;23.60;;
70549;SDS011;58101;48.658;2.328;2022-12-16T16:50:30;51.20;;;21.23;;
70549;SDS011;58101;48.658;2.328;2022-12-16T16:53:15;48.63;;;19.15;;
70549;SDS011;58101;48.658;2.328;2022-12-16T16:55:59;48.38;;;16.80;;
70549;SDS011;58101;48.658;2.328;2022-12-16T16:58:43;44.08;;;16.40;;
70549;SDS011;58101;48.658;2.328;2022-12-16T17:01:28;45.20;;;16.08;;
70549;SDS011;58101;48.658;2.328;2022-12-16T17:04:12;45.53;;;17.10;;
70549;SDS011;58101;48.658;2.328;2022-12-16T17:06:56;48.00;;;16.63;;
70549;SDS011;58101;48.658;2.328;2022-12-16T17:09:40;51.30;;;16.92;;
70549;SDS011;58101;48.658;2.328;2022-12-16T17:12:26;49.08;;;17.77;;
70549;SDS011;58101;48.658;2.328;2022-12-16T17:18:06;52.47;;;20.75;;
70549;SDS011;58101;48.658;2.328;2022-12-16T17:20:51;57.35;;;21.67;;
70549;SDS011;58101;48.658;2.328;2022-12-16T17:23:36;55.20;;;21.90;;
70549;SDS011;58101;48.658;2.328;2022-12-16T17:26:20;57.25;;;22.90;;
70549;SDS011;58101;48.658;2.328;2022-12-16T17:29:05;56.63;;;20.58;;
70549;SDS011;58101;48.658;2.328;2022-12-16T17:31:55;54.03;;;21.48;;
70549;SDS011;58101;48.658;2.328;2022-12-16T17:34:39;64.25;;;23.52;;
70549;SDS011;58101;48.658;2.328;2022-12-16T17:37:23;60.85;;;22.65;;
70549;SDS011;58101;48.658;2.328;2022-12-16T17:40:08;64.88;;;25.73;;
70549;SDS011;58101;48.658;2.328;2022-12-16T17:42:52;73.47;;;26.88;;
70549;SDS011;58101;48.658;2.328;2022-12-16T17:45:36;122.88;;;39.75;;
70549;SDS011;58101;48.658;2.328;2022-12-16T17:48:20;96.78;;;36.72;;
70549;SDS011;58101;48.658;2.328;2022-12-16T17:51:04;86.88;;;32.97;;
70549;SDS011;58101;48.658;2.328;2022-12-16T17:53:49;88.78;;;32.03;;
70549;SDS011;58101;48.658;2.328;2022-12-16T17:56:34;94.25;;;35.05;;
70549;SDS011;58101;48.658;2.328;2022-12-16T17:59:18;93.97;;;35.28;;
70549;SDS011;58101;48.658;2.328;2022-12-16T18:02:02;101.40;;;38.78;;
70549;SDS011;58101;48.658;2.328;2022-12-16T18:04:46;84.60;;;34.05;;
70549;SDS011;58101;48.658;2.328;2022-12-16T18:07:30;67.68;;;27.88;;
70549;SDS011;58101;48.658;2.328;2022-12-16T18:10:14;63.72;;;25.58;;